»·PEaware :: N112PC KBTF-KCYS

N112PC :: KBTF-KCYS

FLIGHT INFORMATION

Flight Status: Arrived
Operator: Privately registered:
United States
More flights under this callsign
Pilot: Gabor H. (24209)
Aircraft: PILATUS PC-12 EAGLE
(PC12)
More flights by this aircraft type
Origin: KBTF Skypark
United States
Destination: KCYS Cheyenne
United States
More flights between these airports :: More routes between these airports
Route: FBR LAR CYS
File this flight plan on PilotEdge
Remarks:
Altitude:
(Current/Filed)
25,000ft
Speed:
(Current/Filed)
260kts
Departed: 06-Jun-19 07:51 PM
Arrived: 06-Jun-19 09:11 PM
Distance/Time
Traveled:
322nm/1:20
Distance/Time
To Go:
Arrived

Flight Plot

Page will automatically refresh every two minutes.

Flight plan parsing failed; only flown route is shown


Map Options




Map Legend


Flown Route
Filed Route
Departure Airport
Arrival Airport
Navaid (VOR, NDB)
Fix

Horizontal Profiles

Position Reports

Time Latitude Longitude Heading Altitude Ground
Speed
06-Jun-19 19:28 40.867812 -111.928860 179 4237ft 0kts
06-Jun-19 19:29 40.867812 -111.928860 179 4237ft 0kts
06-Jun-19 19:30 40.867812 -111.928860 179 4237ft 0kts
06-Jun-19 19:31 40.867812 -111.928860 179 4237ft 0kts
06-Jun-19 19:32 40.867812 -111.928860 179 4237ft 0kts
06-Jun-19 19:33 40.867812 -111.928860 179 4237ft 0kts
06-Jun-19 19:34 40.867812 -111.928860 179 4237ft 0kts
06-Jun-19 19:35 40.867812 -111.928860 179 4237ft 0kts
06-Jun-19 19:36 40.867812 -111.928860 179 4237ft 0kts
06-Jun-19 19:37 40.867812 -111.928860 179 4237ft 0kts
06-Jun-19 19:38 40.867812 -111.928860 179 4237ft 0kts
06-Jun-19 19:39 40.867812 -111.928860 179 4237ft 0kts
06-Jun-19 19:40 40.867812 -111.928860 179 4237ft 0kts
06-Jun-19 19:41 40.867812 -111.928860 179 4237ft 0kts
06-Jun-19 19:42 40.867812 -111.928860 179 4237ft 0kts
06-Jun-19 19:43 40.867798 -111.928859 179 4237ft 0kts
06-Jun-19 19:44 40.867799 -111.928859 179 4237ft 0kts
06-Jun-19 19:45 40.869522 -111.928049 359 4237ft 21kts
06-Jun-19 19:46 40.873843 -111.928049 358 4237ft 2kts
06-Jun-19 19:47 40.874220 -111.928061 0 4237ft 0kts
06-Jun-19 19:48 40.874220 -111.928061 0 4237ft 0kts
06-Jun-19 19:49 40.874361 -111.928009 42 4237ft 5kts
06-Jun-19 19:50 40.866819 -111.927528 180 4268ft 106kts
06-Jun-19 19:51 40.836646 -111.952158 266 5701ft 163kts
06-Jun-19 19:52 40.835240 -112.008037 251 7241ft 166kts
06-Jun-19 19:53 40.852972 -112.067758 305 8127ft 186kts
06-Jun-19 19:54 40.887054 -112.115843 306 9614ft 180kts
06-Jun-19 19:55 40.928292 -112.153768 347 11129ft 198kts
06-Jun-19 19:56 40.983722 -112.158157 353 12633ft 201kts
06-Jun-19 19:57 41.012993 -112.102426 91 14153ft 207kts
06-Jun-19 19:58 41.016709 -112.025222 93 15669ft 212kts
06-Jun-19 19:59 41.020031 -111.946184 93 17173ft 218kts
06-Jun-19 20:00 41.023054 -111.864965 94 18676ft 225kts
06-Jun-19 20:01 41.027620 -111.779748 86 20193ft 237kts
06-Jun-19 20:02 41.039465 -111.693199 84 21692ft 238kts
06-Jun-19 20:03 41.050675 -111.607569 84 23184ft 232kts
06-Jun-19 20:04 41.062208 -111.523704 84 24432ft 235kts
06-Jun-19 20:05 41.074145 -111.433965 84 25020ft 270kts
06-Jun-19 20:07 41.087008 -111.330098 84 25044ft 294kts
06-Jun-19 20:08 41.100007 -111.221923 84 25074ft 299kts
06-Jun-19 20:09 41.112924 -111.112483 84 25096ft 301kts
06-Jun-19 20:10 41.124751 -111.002602 85 25106ft 301kts
06-Jun-19 20:11 41.136004 -110.892919 85 25125ft 300kts
06-Jun-19 20:12 41.146205 -110.782472 86 25113ft 300kts
06-Jun-19 20:13 41.156234 -110.672287 85 25111ft 301kts
06-Jun-19 20:14 41.166966 -110.562427 85 25110ft 300kts
06-Jun-19 20:15 41.177817 -110.452481 85 25096ft 300kts
06-Jun-19 20:16 41.187486 -110.342058 86 25108ft 300kts
06-Jun-19 20:17 41.194859 -110.253877 86 25143ft 299kts
06-Jun-19 20:18 41.198894 -110.144185 90 25146ft 298kts
06-Jun-19 20:19 41.204602 -110.034143 88 25144ft 299kts
06-Jun-19 20:20 41.210800 -109.923812 88 25145ft 300kts
06-Jun-19 20:21 41.216670 -109.813214 88 25147ft 300kts
06-Jun-19 20:22 41.222510 -109.702287 88 25150ft 300kts
06-Jun-19 20:23 41.227691 -109.591805 89 25153ft 300kts
06-Jun-19 20:24 41.232156 -109.481377 89 25159ft 299kts
06-Jun-19 20:25 41.236565 -109.371099 89 25164ft 299kts
06-Jun-19 20:26 41.240854 -109.261008 89 25173ft 298kts
06-Jun-19 20:26 41.244298 -109.169235 89 25175ft 298kts
06-Jun-19 20:28 41.247127 -109.040884 91 25175ft 297kts
06-Jun-19 20:29 41.248521 -108.931086 91 25167ft 297kts
06-Jun-19 20:29 41.249524 -108.839713 91 25166ft 296kts
06-Jun-19 20:30 41.250765 -108.730209 91 25168ft 296kts
06-Jun-19 20:32 41.252028 -108.602992 91 25169ft 295kts
06-Jun-19 20:32 41.252886 -108.511788 91 25161ft 296kts
06-Jun-19 20:33 41.253867 -108.402509 91 25155ft 295kts
06-Jun-19 20:34 41.254769 -108.293465 91 25151ft 295kts
06-Jun-19 20:35 41.255667 -108.184534 91 25147ft 295kts
06-Jun-19 20:36 41.256498 -108.075717 91 25150ft 294kts
06-Jun-19 20:37 41.257324 -107.966705 90 25136ft 295kts
06-Jun-19 20:38 41.259008 -107.857743 90 25142ft 294kts
06-Jun-19 20:39 41.260638 -107.748675 90 25144ft 294kts
06-Jun-19 20:40 41.262231 -107.639885 90 25141ft 294kts
06-Jun-19 20:41 41.263772 -107.531315 90 25139ft 294kts
06-Jun-19 20:42 41.265204 -107.422234 90 25142ft 294kts
06-Jun-19 20:43 41.266603 -107.314028 89 25154ft 293kts
06-Jun-19 20:44 41.268959 -107.205269 89 25161ft 293kts
06-Jun-19 20:45 41.271263 -107.096991 89 25163ft 293kts
06-Jun-19 20:46 41.273397 -106.988799 89 25165ft 293kts
06-Jun-19 20:47 41.275397 -106.880712 89 25167ft 292kts
06-Jun-19 20:48 41.278326 -106.772844 88 25172ft 292kts
06-Jun-19 20:49 41.283957 -106.665086 85 25174ft 292kts
06-Jun-19 20:50 41.290517 -106.557318 85 25178ft 291kts
06-Jun-19 20:51 41.296600 -106.450094 86 25177ft 290kts
06-Jun-19 20:52 41.302546 -106.341933 86 24870ft 299kts
06-Jun-19 20:53 41.308469 -106.229954 86 23559ft 305kts
06-Jun-19 20:54 41.303463 -106.118128 99 22073ft 302kts
06-Jun-19 20:55 41.292390 -106.007367 99 20579ft 302kts
06-Jun-19 20:56 41.281680 -105.896951 99 19081ft 300kts
06-Jun-19 20:57 41.271062 -105.786831 99 17607ft 299kts
06-Jun-19 20:58 41.260576 -105.676929 99 16261ft 298kts
06-Jun-19 20:59 41.252161 -105.567568 94 14966ft 297kts
06-Jun-19 21:00 41.248925 -105.458488 93 13823ft 294kts
06-Jun-19 21:01 41.246850 -105.350988 92 13052ft 277kts
06-Jun-19 21:02 41.245391 -105.255242 92 11782ft 239kts
06-Jun-19 21:03 41.244491 -105.171802 92 10276ft 217kts
06-Jun-19 21:04 41.244324 -105.095934 92 10000ft 201kts
06-Jun-19 21:05 41.244344 -105.020949 92 9744ft 196kts
06-Jun-19 21:06 41.237491 -104.950639 107 9242ft 189kts
06-Jun-19 21:07 41.217770 -104.898675 137 9085ft 148kts
06-Jun-19 21:08 41.191527 -104.866368 138 8141ft 108kts
06-Jun-19 21:09 41.170881 -104.838973 136 6578ft 93kts
06-Jun-19 21:10 41.156118 -104.819328 134 6159ft 28kts
06-Jun-19 21:11 41.153759 -104.817730 229 6159ft 0kts
06-Jun-19 21:12 41.152343 -104.817541 248 6159ft 8kts
06-Jun-19 21:13 41.151984 -104.817714 173 6159ft 0kts
06-Jun-19 21:14 41.151984 -104.817714 173 6159ft 0kts
06-Jun-19 21:15 41.151984 -104.817714 173 6159ft 0kts
06-Jun-19 21:16 41.151984 -104.817714 173 6159ft 0kts

Navigation Log

Ident Type
Flight plan parsing failed, navigation log unavailable